createdAt,value
2018-11-12T00:01:56.813Z,69.43
2018-11-12T00:04:27.240Z,70.87
2018-11-12T00:06:57.789Z,74.13
2018-11-12T00:09:28.040Z,83.93
2018-11-12T00:11:58.247Z,70.12
2018-11-12T00:14:28.596Z,68.20
2018-11-12T00:16:58.852Z,60.27
2018-11-12T00:19:29.291Z,58.00
2018-11-12T00:21:59.593Z,62.50
2018-11-12T00:24:30.019Z,58.33
2018-11-12T00:27:00.324Z,57.05
2018-11-12T00:29:30.558Z,57.55
2018-11-12T00:32:00.825Z,55.90
2018-11-12T00:34:31.156Z,59.27
2018-11-12T00:37:01.484Z,55.12
2018-11-12T00:39:31.830Z,55.52
2018-11-12T00:42:02.083Z,56.98
2018-11-12T00:44:32.434Z,53.48
2018-11-12T00:47:02.976Z,53.23
2018-11-12T00:49:33.137Z,57.30
2018-11-12T00:52:03.518Z,52.90
2018-11-12T00:54:34.080Z,50.78
2018-11-12T00:57:04.212Z,49.73
2018-11-12T00:59:34.799Z,46.88
2018-11-12T01:02:05.631Z,47.10
2018-11-12T01:04:35.840Z,47.55
2018-11-12T01:07:06.350Z,50.80
2018-11-12T01:09:37.624Z,51.50
2018-11-12T01:12:08.076Z,50.58
2018-11-12T01:17:38.718Z,48.70
2018-11-12T01:20:10.485Z,50.50
2018-11-12T01:22:40.717Z,50.17
2018-11-12T01:25:12.532Z,51.50
2018-11-12T01:27:43.645Z,59.40
2018-11-12T01:30:15.149Z,63.02
2018-11-12T01:32:45.786Z,61.30
2018-11-12T01:35:16.924Z,58.35
2018-11-12T01:37:47.463Z,55.43
2018-11-12T01:40:17.963Z,55.55
2018-11-12T01:42:48.323Z,54.23
2018-11-12T01:45:20.004Z,55.17
2018-11-12T01:47:51.404Z,51.98
2018-11-12T01:50:21.812Z,51.95
2018-11-12T01:52:52.343Z,53.33
2018-11-12T01:55:22.604Z,53.58
2018-11-12T01:57:53.199Z,55.08
2018-11-12T02:00:23.757Z,52.08
2018-11-12T02:02:54.217Z,52.87
2018-11-12T02:05:24.611Z,53.45
2018-11-12T02:07:54.869Z,55.23
2018-11-12T02:10:25.129Z,58.63
2018-11-12T02:12:55.462Z,57.67
2018-11-12T02:15:25.620Z,58.52
2018-11-12T02:17:55.861Z,63.15
2018-11-12T02:20:26.421Z,59.70
2018-11-12T02:22:56.599Z,65.35
2018-11-12T02:25:26.815Z,58.68
2018-11-12T02:27:57.141Z,55.75
2018-11-12T02:30:32.490Z,55.78
2018-11-12T02:33:02.831Z,62.38
2018-11-12T02:35:33.203Z,83.85
2018-11-12T02:38:03.400Z,88.90
2018-11-12T02:40:33.747Z,71.12
2018-11-12T02:43:04.222Z,67.25
2018-11-12T02:45:34.756Z,71.55
2018-11-12T02:48:05.072Z,79.92
2018-11-12T02:50:35.420Z,81.42
2018-11-12T02:53:05.997Z,84.97
2018-11-12T02:55:36.286Z,87.53
2018-11-12T02:58:06.969Z,87.88
2018-11-12T03:00:37.270Z,85.22
2018-11-12T03:03:07.605Z,81.97
2018-11-12T03:05:38.196Z,79.92
2018-11-12T03:08:08.355Z,94.92
2018-11-12T03:10:38.576Z,89.30
2018-11-12T03:13:08.913Z,84.92
2018-11-12T03:15:39.293Z,80.42
2018-11-12T03:18:09.661Z,78.30
2018-11-12T03:20:39.948Z,79.17
2018-11-12T03:23:10.498Z,72.55
2018-11-12T03:25:41.233Z,65.97
2018-11-12T03:28:11.547Z,62.27
2018-11-12T03:30:41.851Z,57.13
2018-11-12T03:33:12.110Z,53.80
2018-11-12T03:35:42.351Z,51.42
2018-11-12T03:38:12.600Z,48.85
2018-11-12T03:40:42.941Z,47.45
2018-11-12T03:43:13.097Z,44.80
2018-11-12T03:45:43.380Z,45.03
2018-11-12T03:48:13.893Z,46.58
2018-11-12T03:50:44.187Z,46.63
2018-11-12T03:53:14.746Z,46.55
2018-11-12T03:55:45.204Z,46.28
2018-11-12T03:58:15.460Z,47.93
2018-11-12T04:00:45.860Z,49.77
2018-11-12T04:03:16.281Z,51.08
2018-11-12T04:05:46.495Z,49.50
2018-11-12T04:08:16.945Z,51.92
2018-11-12T04:10:47.328Z,50.75
2018-11-12T04:13:17.629Z,53.45
2018-11-12T04:15:47.924Z,59.13
2018-11-12T04:18:18.316Z,68.35
2018-11-12T04:20:48.674Z,64.95
2018-11-12T04:23:18.839Z,65.85
2018-11-12T04:25:49.139Z,68.90
2018-11-12T04:28:19.267Z,68.52
2018-11-12T04:30:49.495Z,66.87
2018-11-12T04:33:19.752Z,73.87
2018-11-12T04:35:49.971Z,73.00
2018-11-12T04:38:20.225Z,72.62
2018-11-12T04:40:50.940Z,72.10
2018-11-12T04:43:21.169Z,82.95
2018-11-12T04:45:51.969Z,77.12
2018-11-12T04:48:22.327Z,74.37
2018-11-12T04:50:52.541Z,76.60
2018-11-12T04:53:23.710Z,80.50
2018-11-12T04:55:54.082Z,82.90
2018-11-12T04:58:24.545Z,75.70
2018-11-12T05:00:54.890Z,72.72
2018-11-12T05:03:25.228Z,65.65
2018-11-12T05:05:55.544Z,69.12
2018-11-12T05:08:25.775Z,66.25
2018-11-12T05:10:56.244Z,62.00
2018-11-12T05:13:27.119Z,63.40
2018-11-12T05:15:57.917Z,63.75
2018-11-12T05:18:28.107Z,90.87
2018-11-12T05:24:08.505Z,74.97
2018-11-12T05:26:39.396Z,80.95
2018-11-12T05:29:10.164Z,78.33
2018-11-12T05:31:40.471Z,80.55
2018-11-12T05:34:10.706Z,76.67
2018-11-12T05:36:40.993Z,80.95
2018-11-12T05:39:13.351Z,95.77
2018-11-12T05:41:43.640Z,91.32
2018-11-12T05:44:14.168Z,94.13
2018-11-12T05:46:44.774Z,107.50
2018-11-12T05:49:15.020Z,114.77
2018-11-12T05:51:45.346Z,114.90
2018-11-12T05:54:16.035Z,115.20
2018-11-12T05:56:46.396Z,116.57
2018-11-12T05:59:17.096Z,115.75
2018-11-12T06:01:47.427Z,121.40
2018-11-12T06:04:17.649Z,122.13
2018-11-12T06:06:47.942Z,126.58
2018-11-12T06:09:18.178Z,122.62
2018-11-12T06:11:48.620Z,144.28
2018-11-12T06:14:19.346Z,161.73
2018-11-12T06:16:50.094Z,158.45
2018-11-12T06:19:20.595Z,166.27
2018-11-12T06:21:50.759Z,140.03
2018-11-12T06:24:21.131Z,134.30
2018-11-12T06:26:51.450Z,131.67
2018-11-12T06:29:21.973Z,124.53
2018-11-12T06:31:52.592Z,121.27
2018-11-12T06:34:23.326Z,112.53
2018-11-12T06:36:53.785Z,106.23
2018-11-12T06:39:24.119Z,93.97
2018-11-12T06:41:54.360Z,91.77
2018-11-12T06:44:24.776Z,98.53
2018-11-12T06:46:55.137Z,98.43
2018-11-12T06:49:25.392Z,98.20
2018-11-12T06:51:55.625Z,97.43
2018-11-12T06:54:26.207Z,92.10
2018-11-12T06:56:56.586Z,79.13
2018-11-12T06:59:26.997Z,74.07
2018-11-12T07:01:57.448Z,69.83
2018-11-12T07:04:27.847Z,63.53
2018-11-12T07:06:58.281Z,57.53
2018-11-12T07:09:28.439Z,58.40
2018-11-12T07:11:58.892Z,56.23
2018-11-12T07:14:44.976Z,54.37
2018-11-12T07:17:30.994Z,55.40
2018-11-12T07:20:18.704Z,50.67
2018-11-12T07:22:49.705Z,54.53
2018-11-12T07:25:21.663Z,53.07
2018-11-12T07:27:51.849Z,53.90
2018-11-12T07:30:26.383Z,53.17
2018-11-12T07:32:57.618Z,51.57
2018-11-12T07:35:28.205Z,50.10
2018-11-12T07:37:58.879Z,47.40
2018-11-12T07:40:29.513Z,51.20
2018-11-12T07:42:59.793Z,48.40
2018-11-12T07:45:31.018Z,50.00
2018-11-12T07:48:01.488Z,60.70
2018-11-12T07:50:32.100Z,49.70
2018-11-12T07:53:02.401Z,48.57
2018-11-12T07:55:32.651Z,48.37
2018-11-12T07:58:03.073Z,49.23
2018-11-12T08:00:34.830Z,49.70
2018-11-12T08:03:06.182Z,48.27
2018-11-12T08:05:37.383Z,46.97
2018-11-12T08:08:08.354Z,48.07
2018-11-12T08:10:45.145Z,45.60
2018-11-12T08:13:15.540Z,46.73
2018-11-12T08:15:45.865Z,46.77
2018-11-12T08:18:16.082Z,44.70
2018-11-12T08:20:46.488Z,46.23
2018-11-12T08:23:16.890Z,45.23
2018-11-12T08:25:47.376Z,46.13
2018-11-12T08:28:17.727Z,47.53
2018-11-12T08:30:48.129Z,46.77
2018-11-12T08:33:18.482Z,45.67
2018-11-12T08:35:48.867Z,48.23
2018-11-12T08:38:19.482Z,46.63
2018-11-12T08:40:49.757Z,44.47
2018-11-12T08:43:20.577Z,43.17
2018-11-12T08:45:50.909Z,48.38
2018-11-12T08:48:21.198Z,46.00
2018-11-12T08:50:51.452Z,43.20
2018-11-12T08:53:22.630Z,44.97
2018-11-12T08:55:52.802Z,45.50
2018-11-12T08:58:23.050Z,47.17
2018-11-12T09:00:53.306Z,51.77
2018-11-12T09:03:24.048Z,54.48
2018-11-12T09:05:54.295Z,48.07
2018-11-12T09:08:24.551Z,47.43
2018-11-12T09:10:54.980Z,46.97
2018-11-12T09:13:25.539Z,46.53
2018-11-12T09:15:55.813Z,46.60
2018-11-12T09:18:26.473Z,44.80
2018-11-12T09:20:56.780Z,46.90
2018-11-12T09:23:28.055Z,45.43
2018-11-12T09:25:58.355Z,45.80
2018-11-12T09:28:28.648Z,43.60
2018-11-12T09:31:00.255Z,42.83
2018-11-12T09:33:29.323Z,41.00
2018-11-12T09:35:59.659Z,41.53
2018-11-12T09:38:30.065Z,44.03
2018-11-12T09:41:00.265Z,43.20
2018-11-12T09:43:30.627Z,41.07
2018-11-12T09:46:00.927Z,38.10
2018-11-12T09:48:31.528Z,37.97
2018-11-12T09:51:01.989Z,32.20
2018-11-12T09:53:32.253Z,35.97
2018-11-12T09:56:02.596Z,37.40
2018-11-12T09:58:33.752Z,32.23
2018-11-12T10:01:04.404Z,28.03
2018-11-12T10:03:35.592Z,29.93
2018-11-12T10:06:06.051Z,30.17
2018-11-12T10:08:38.794Z,29.43
2018-11-12T10:11:11.319Z,25.50
2018-11-12T10:13:41.506Z,23.60
2018-11-12T10:16:12.761Z,24.63
2018-11-12T10:18:40.117Z,24.25
2018-11-12T10:21:10.644Z,22.97
2018-11-12T10:23:41.050Z,20.23
2018-11-12T10:26:11.395Z,21.73
2018-11-12T10:28:41.772Z,18.80
2018-11-12T10:31:12.182Z,18.43
2018-11-12T10:33:42.420Z,16.57
2018-11-12T10:36:12.910Z,17.17
2018-11-12T10:38:43.209Z,16.83
2018-11-12T10:41:13.619Z,17.47
2018-11-12T10:43:43.917Z,19.77
2018-11-12T10:46:14.131Z,18.60
2018-11-12T10:48:44.379Z,20.30
2018-11-12T10:51:15.147Z,21.13
2018-11-12T10:53:50.045Z,22.90
2018-11-12T10:56:22.924Z,23.87
2018-11-12T10:58:55.677Z,21.07
2018-11-12T11:01:36.058Z,22.70
2018-11-12T11:04:11.738Z,23.67
2018-11-12T11:06:42.046Z,23.47
2018-11-12T11:09:12.685Z,23.23
2018-11-12T11:11:42.974Z,21.07
2018-11-12T11:14:13.302Z,20.40
2018-11-12T11:16:44.072Z,20.10
2018-11-12T11:19:16.449Z,23.20
2018-11-12T11:21:47.083Z,27.47
2018-11-12T11:24:18.527Z,25.90
2018-11-12T11:26:51.495Z,23.20
2018-11-12T11:29:21.842Z,20.10
2018-11-12T11:31:52.337Z,19.73
2018-11-12T11:34:22.745Z,27.97
2018-11-12T11:36:55.404Z,17.43
2018-11-12T11:39:26.257Z,18.67
2018-11-12T11:41:56.615Z,24.03
2018-11-12T11:44:26.953Z,22.93
2018-11-12T11:46:57.310Z,17.67
2018-11-12T11:49:27.748Z,19.33
2018-11-12T11:51:57.966Z,18.50
2018-11-12T11:54:28.496Z,15.60
2018-11-12T11:56:59.230Z,18.13
2018-11-12T11:59:29.659Z,17.00
2018-11-12T12:01:59.935Z,18.43
2018-11-12T12:04:30.437Z,20.67
2018-11-12T12:07:01.059Z,19.53
2018-11-12T12:09:31.841Z,26.30
2018-11-12T12:12:02.332Z,16.03
2018-11-12T12:14:32.851Z,18.53
2018-11-12T12:17:03.157Z,18.73
2018-11-12T12:19:33.672Z,18.37
2018-11-12T12:22:03.966Z,18.23
2018-11-12T12:24:34.323Z,23.70
2018-11-12T12:27:04.648Z,23.30
2018-11-12T12:29:35.051Z,21.97
2018-11-12T12:32:05.417Z,19.93
2018-11-12T12:34:35.692Z,21.17
2018-11-12T12:37:06.420Z,21.93
2018-11-12T12:39:36.694Z,22.75
2018-11-12T12:42:07.028Z,20.70
2018-11-12T12:44:37.958Z,22.90
2018-11-12T12:47:08.613Z,27.33
2018-11-12T12:49:38.988Z,26.37
2018-11-12T12:52:09.496Z,19.50
2018-11-12T12:54:39.946Z,23.90
2018-11-12T12:57:10.316Z,20.50
2018-11-12T12:59:41.035Z,26.50
2018-11-12T13:02:11.591Z,19.03
2018-11-12T13:04:41.876Z,19.40
2018-11-12T13:07:12.365Z,16.63
2018-11-12T13:09:42.693Z,16.90
2018-11-12T13:12:13.145Z,14.53
2018-11-12T13:14:43.680Z,13.83
2018-11-12T13:17:13.984Z,14.10
2018-11-12T13:19:44.271Z,14.90
2018-11-12T13:22:14.644Z,13.53
2018-11-12T13:24:44.964Z,13.40
2018-11-12T13:27:15.240Z,13.97
2018-11-12T13:29:45.540Z,14.77
2018-11-12T13:32:16.314Z,13.50
2018-11-12T13:34:46.501Z,10.73
2018-11-12T13:37:16.926Z,11.20
2018-11-12T13:39:47.128Z,10.40
2018-11-12T13:42:17.550Z,9.67
2018-11-12T13:44:47.956Z,8.10
2018-11-12T13:47:18.364Z,9.83
2018-11-12T13:49:48.735Z,10.13
2018-11-12T13:52:18.975Z,9.83
2018-11-12T13:54:49.313Z,9.73
2018-11-12T13:57:19.535Z,9.70
2018-11-12T13:59:50.024Z,13.00
2018-11-12T14:02:20.529Z,9.17
2018-11-12T14:04:50.925Z,9.37
2018-11-12T14:07:21.537Z,9.67
2018-11-12T14:09:51.707Z,9.77
2018-11-12T14:12:21.943Z,10.87
2018-11-12T14:14:52.245Z,9.47
2018-11-12T14:17:22.484Z,11.37
2018-11-12T14:19:52.697Z,11.00
2018-11-12T14:22:23.266Z,12.17
2018-11-12T14:24:53.631Z,15.33
2018-11-12T14:27:24.017Z,18.13
2018-11-12T14:29:54.247Z,23.03
2018-11-12T14:32:24.989Z,19.73
2018-11-12T14:34:55.397Z,18.83
2018-11-12T14:37:25.802Z,14.20
2018-11-12T14:39:55.969Z,12.77
2018-11-12T14:42:26.523Z,13.37
2018-11-12T14:44:57.151Z,15.53
2018-11-12T14:47:27.494Z,14.60
2018-11-12T14:49:58.167Z,14.27
2018-11-12T14:52:28.716Z,17.27
2018-11-12T14:54:59.227Z,16.43
2018-11-12T14:57:30.479Z,13.97
2018-11-12T15:00:01.449Z,12.50
2018-11-12T15:02:32.376Z,13.60
2018-11-12T15:05:04.565Z,13.87
2018-11-12T15:07:35.089Z,11.27
2018-11-12T15:10:06.811Z,10.53
2018-11-12T15:12:38.623Z,10.63
2018-11-12T15:15:10.593Z,13.10
2018-11-12T15:17:41.091Z,12.57
2018-11-12T15:20:13.716Z,12.23
2018-11-12T15:22:44.413Z,12.13
2018-11-12T15:25:20.227Z,12.23
2018-11-12T15:27:50.498Z,12.23
2018-11-12T15:30:22.428Z,10.97
2018-11-12T15:32:53.927Z,10.10
2018-11-12T15:35:24.252Z,12.77
2018-11-12T15:37:55.335Z,11.13
2018-11-12T15:40:25.784Z,11.47
2018-11-12T15:42:55.985Z,12.17
2018-11-12T15:45:29.483Z,12.40
2018-11-12T15:47:59.699Z,12.40
2018-11-12T15:50:35.096Z,9.50
2018-11-12T15:53:05.529Z,9.83
2018-11-12T15:55:35.948Z,11.43
2018-11-12T15:58:06.396Z,10.03
2018-11-12T16:00:36.842Z,10.13
2018-11-12T16:03:07.240Z,15.20
2018-11-12T16:05:37.576Z,14.77
2018-11-12T16:08:08.297Z,14.47
2018-11-12T16:10:38.870Z,18.83
2018-11-12T16:13:09.192Z,16.17
2018-11-12T16:15:39.503Z,20.00
2018-11-12T16:18:09.835Z,23.83
2018-11-12T16:20:40.782Z,25.50
2018-11-12T16:23:11.113Z,17.30
2018-11-12T16:25:41.456Z,27.00
2018-11-12T16:28:11.843Z,23.63
2018-11-12T16:30:42.166Z,25.70
2018-11-12T16:33:12.489Z,25.53
2018-11-12T16:35:42.942Z,26.43
2018-11-12T16:38:13.553Z,28.00
2018-11-12T16:40:43.999Z,26.37
2018-11-12T16:43:15.935Z,36.83
2018-11-12T16:45:46.381Z,25.17
2018-11-12T16:48:17.037Z,24.27
2018-11-12T16:50:47.497Z,23.17
2018-11-12T16:53:18.620Z,21.57
2018-11-12T16:55:49.618Z,17.73
2018-11-12T16:58:20.125Z,17.17
2018-11-12T17:00:50.549Z,25.53
2018-11-12T17:03:20.945Z,20.17
2018-11-12T17:05:51.151Z,14.70
2018-11-12T17:08:21.587Z,15.30
2018-11-12T17:10:52.059Z,21.07
2018-11-12T17:13:25.183Z,20.73
2018-11-12T17:15:55.406Z,25.43
2018-11-12T17:18:25.807Z,13.97
2018-11-12T17:20:56.317Z,16.47
2018-11-12T17:23:26.753Z,33.37
2018-11-12T17:25:57.143Z,25.47
2018-11-12T17:28:28.449Z,22.67
2018-11-12T17:30:58.899Z,20.83
2018-11-12T17:33:29.155Z,22.90
2018-11-12T17:35:59.488Z,27.03
2018-11-12T17:38:29.772Z,16.30
2018-11-12T17:41:00.509Z,24.77
2018-11-12T17:43:30.841Z,27.00
2018-11-12T17:46:02.148Z,26.30
2018-11-12T17:48:32.557Z,26.10
2018-11-12T17:51:02.919Z,13.80
2018-11-12T17:53:33.260Z,15.87
2018-11-12T17:56:03.796Z,14.53
2018-11-12T17:58:34.285Z,12.60
2018-11-12T18:01:07.303Z,9.13
2018-11-12T18:03:38.102Z,13.53
2018-11-12T18:06:09.393Z,11.53
2018-11-12T18:08:39.701Z,9.40
2018-11-12T18:11:10.099Z,10.23
2018-11-12T18:13:40.444Z,8.93
2018-11-12T18:16:11.339Z,20.40
2018-11-12T18:18:41.555Z,19.70
2018-11-12T18:21:11.928Z,13.13
2018-11-12T18:23:42.422Z,18.53
2018-11-12T18:26:12.843Z,28.97
2018-11-12T18:28:43.059Z,19.67
2018-11-12T18:31:13.799Z,14.67
2018-11-12T18:33:44.320Z,21.87
2018-11-12T18:36:14.706Z,10.97
2018-11-12T18:38:45.256Z,22.93
2018-11-12T18:41:15.998Z,20.80
2018-11-12T18:43:46.517Z,36.27
2018-11-12T18:46:17.170Z,44.53
2018-11-12T18:48:47.610Z,34.37
2018-11-12T18:51:17.954Z,35.03
2018-11-12T18:53:48.246Z,29.07
2018-11-12T18:56:18.533Z,29.30
2018-11-12T18:58:48.806Z,38.73
2018-11-12T19:01:19.195Z,41.27
2018-11-12T19:03:49.529Z,9.80
2018-11-12T19:06:19.690Z,7.30
2018-11-12T19:08:49.967Z,6.60
2018-11-12T19:11:20.255Z,8.30
2018-11-12T19:13:50.608Z,7.50
2018-11-12T19:16:20.915Z,6.90
2018-11-12T19:18:51.439Z,7.57
2018-11-12T19:21:21.929Z,14.70
2018-11-12T19:23:52.222Z,11.43
2018-11-12T19:26:22.506Z,6.93
2018-11-12T19:28:53.187Z,5.67
2018-11-12T19:31:23.798Z,5.37
2018-11-12T19:33:54.176Z,5.63
2018-11-12T19:36:24.472Z,5.33
2018-11-12T19:38:55.147Z,5.90
2018-11-12T19:41:25.477Z,5.93
2018-11-12T19:43:55.668Z,6.87
2018-11-12T19:46:25.960Z,6.10
2018-11-12T19:48:56.226Z,5.80
2018-11-12T19:51:26.685Z,6.63
2018-11-12T19:53:57.026Z,10.65
2018-11-12T19:56:27.551Z,39.57
2018-11-12T19:58:58.056Z,37.13
2018-11-12T20:01:28.301Z,23.47
2018-11-12T20:03:58.768Z,29.87
2018-11-12T20:06:29.186Z,25.60
2018-11-12T20:08:59.362Z,14.67
2018-11-12T20:11:29.662Z,9.17
2018-11-12T20:13:59.980Z,14.87
2018-11-12T20:16:30.315Z,15.17
2018-11-12T20:19:00.630Z,21.50
2018-11-12T20:21:30.980Z,21.13
2018-11-12T20:24:01.975Z,20.40
2018-11-12T20:26:32.298Z,12.50
2018-11-12T20:29:04.106Z,12.47
2018-11-12T20:31:35.908Z,38.33
2018-11-12T20:34:09.076Z,57.10
2018-11-12T20:36:40.692Z,69.50
2018-11-12T20:39:11.742Z,68.60
2018-11-12T20:41:42.461Z,36.23
2018-11-12T20:44:12.708Z,68.83
2018-11-12T20:46:43.089Z,108.27
2018-11-12T20:49:14.348Z,90.70
2018-11-12T20:51:44.818Z,62.90
2018-11-12T20:54:15.977Z,61.13
2018-11-12T20:56:48.151Z,23.17
2018-11-12T20:59:21.311Z,19.33
2018-11-12T21:01:52.824Z,52.57
2018-11-12T21:04:25.165Z,36.30
2018-11-12T21:06:55.650Z,30.97
2018-11-12T21:09:25.884Z,17.30
2018-11-12T21:11:57.636Z,9.43
2018-11-12T21:14:28.003Z,7.80
2018-11-12T21:16:58.325Z,9.30
2018-11-12T21:19:29.395Z,8.00
2018-11-12T21:21:59.792Z,7.73
2018-11-12T21:24:30.252Z,7.10
2018-11-12T21:27:00.671Z,8.57
2018-11-12T21:29:31.188Z,9.20
2018-11-12T21:32:01.652Z,11.83
2018-11-12T21:34:32.248Z,12.90
2018-11-12T21:37:03.953Z,8.10
2018-11-12T21:39:34.154Z,7.87
2018-11-12T21:42:05.062Z,7.50
2018-11-12T21:44:35.307Z,7.03
2018-11-12T21:47:06.063Z,6.93
2018-11-12T21:49:36.368Z,8.70
2018-11-12T21:52:07.099Z,8.67
2018-11-12T21:54:37.620Z,9.90
2018-11-12T21:57:08.036Z,10.50
2018-11-12T21:59:38.273Z,11.53
2018-11-12T22:02:08.682Z,15.50
2018-11-12T22:04:39.061Z,12.17
2018-11-12T22:07:09.538Z,14.20
2018-11-12T22:09:39.861Z,38.83
2018-11-12T22:12:10.090Z,49.20
2018-11-12T22:14:40.422Z,57.43
2018-11-12T22:17:10.834Z,52.87
2018-11-12T22:19:41.774Z,10.70
2018-11-12T22:22:11.991Z,9.37
2018-11-12T22:24:42.282Z,11.37
2018-11-12T22:27:12.494Z,16.10
2018-11-12T22:29:42.890Z,62.47
2018-11-12T22:32:13.397Z,78.83
2018-11-12T22:34:43.907Z,94.73
2018-11-12T22:37:14.342Z,104.87
2018-11-12T22:39:44.562Z,90.43
2018-11-12T22:42:14.766Z,70.05
2018-11-12T22:44:45.031Z,39.03
2018-11-12T22:47:15.655Z,26.30
2018-11-12T22:49:46.447Z,24.70
2018-11-12T22:52:22.125Z,12.33
2018-11-12T22:54:52.425Z,9.27
2018-11-12T22:57:26.367Z,10.10
2018-11-12T22:59:57.128Z,9.03
2018-11-12T23:02:27.768Z,10.40
2018-11-12T23:04:58.189Z,19.27
2018-11-12T23:07:28.545Z,11.37
2018-11-12T23:09:58.784Z,11.97
2018-11-12T23:12:29.141Z,15.07
2018-11-12T23:14:59.561Z,19.10
2018-11-12T23:17:29.855Z,19.00
2018-11-12T23:19:59.999Z,19.53
2018-11-12T23:22:30.323Z,20.00
2018-11-12T23:25:00.605Z,18.53
2018-11-12T23:27:30.976Z,17.27
2018-11-12T23:30:01.255Z,15.13
2018-11-12T23:32:31.766Z,14.83
2018-11-12T23:35:02.167Z,12.97
2018-11-12T23:37:32.398Z,12.23
2018-11-12T23:40:03.128Z,12.87
2018-11-12T23:42:33.640Z,15.87
2018-11-12T23:45:04.905Z,14.90
2018-11-12T23:47:35.890Z,14.37
2018-11-12T23:50:09.464Z,14.13
2018-11-12T23:52:40.126Z,13.00
2018-11-12T23:55:10.943Z,12.63
2018-11-12T23:57:41.356Z,11.83
